sensor_id;sensor_type;location;lat;lon;timestamp;P1;durP1;ratioP1;P2;durP2;ratioP2
54555;SDS011;57291;37.520;15.106;2022-12-17T00:01:53;37.45;;;8.45;;
54555;SDS011;57291;37.520;15.106;2022-12-17T00:04:39;29.65;;;7.72;;
54555;SDS011;57291;37.520;15.106;2022-12-17T00:07:25;28.33;;;7.90;;
54555;SDS011;57291;37.520;15.106;2022-12-17T00:10:11;26.15;;;7.13;;
54555;SDS011;57291;37.520;15.106;2022-12-17T00:12:56;30.05;;;7.60;;
54555;SDS011;57291;37.520;15.106;2022-12-17T00:15:42;23.75;;;7.93;;
54555;SDS011;57291;37.520;15.106;2022-12-17T00:18:35;35.20;;;7.38;;
54555;SDS011;57291;37.520;15.106;2022-12-17T00:21:21;33.70;;;7.88;;
54555;SDS011;57291;37.520;15.106;2022-12-17T00:24:07;32.00;;;8.18;;
54555;SDS011;57291;37.520;15.106;2022-12-17T00:26:53;24.13;;;7.75;;
54555;SDS011;57291;37.520;15.106;2022-12-17T00:29:38;28.08;;;8.88;;
54555;SDS011;57291;37.520;15.106;2022-12-17T00:32:24;24.27;;;8.23;;
54555;SDS011;57291;37.520;15.106;2022-12-17T00:35:10;29.83;;;8.63;;
54555;SDS011;57291;37.520;15.106;2022-12-17T00:37:55;39.47;;;8.85;;
54555;SDS011;57291;37.520;15.106;2022-12-17T00:40:41;35.22;;;9.60;;
54555;SDS011;57291;37.520;15.106;2022-12-17T00:43:26;35.25;;;8.98;;
54555;SDS011;57291;37.520;15.106;2022-12-17T00:46:13;25.45;;;8.15;;
54555;SDS011;57291;37.520;15.106;2022-12-17T00:48:59;28.65;;;9.05;;
54555;SDS011;57291;37.520;15.106;2022-12-17T00:51:44;31.30;;;9.13;;
54555;SDS011;57291;37.520;15.106;2022-12-17T00:54:30;31.05;;;8.98;;
54555;SDS011;57291;37.520;15.106;2022-12-17T00:57:15;32.53;;;10.43;;
54555;SDS011;57291;37.520;15.106;2022-12-17T01:00:01;40.78;;;10.52;;
54555;SDS011;57291;37.520;15.106;2022-12-17T01:02:47;41.35;;;10.60;;
54555;SDS011;57291;37.520;15.106;2022-12-17T01:05:33;37.55;;;10.20;;
54555;SDS011;57291;37.520;15.106;2022-12-17T01:08:19;33.63;;;9.73;;
54555;SDS011;57291;37.520;15.106;2022-12-17T01:11:05;29.38;;;9.32;;
54555;SDS011;57291;37.520;15.106;2022-12-17T01:13:52;40.95;;;10.00;;
54555;SDS011;57291;37.520;15.106;2022-12-17T01:19:31;33.53;;;9.05;;
54555;SDS011;57291;37.520;15.106;2022-12-17T01:22:17;30.50;;;9.38;;
54555;SDS011;57291;37.520;15.106;2022-12-17T01:25:04;35.40;;;9.63;;
54555;SDS011;57291;37.520;15.106;2022-12-17T01:27:50;27.15;;;8.30;;
54555;SDS011;57291;37.520;15.106;2022-12-17T01:30:36;40.00;;;9.63;;
54555;SDS011;57291;37.520;15.106;2022-12-17T01:33:22;31.02;;;8.63;;
54555;SDS011;57291;37.520;15.106;2022-12-17T01:36:08;28.05;;;8.95;;
54555;SDS011;57291;37.520;15.106;2022-12-17T01:38:54;33.15;;;9.40;;
54555;SDS011;57291;37.520;15.106;2022-12-17T01:41:40;27.45;;;7.97;;
54555;SDS011;57291;37.520;15.106;2022-12-17T01:44:42;35.17;;;9.80;;
54555;SDS011;57291;37.520;15.106;2022-12-17T01:47:52;31.00;;;7.90;;
54555;SDS011;57291;37.520;15.106;2022-12-17T01:50:52;30.15;;;8.15;;
54555;SDS011;57291;37.520;15.106;2022-12-17T01:53:42;22.40;;;7.82;;
54555;SDS011;57291;37.520;15.106;2022-12-17T01:56:32;32.38;;;7.95;;
54555;SDS011;57291;37.520;15.106;2022-12-17T01:59:22;26.52;;;7.97;;
54555;SDS011;57291;37.520;15.106;2022-12-17T02:02:16;22.20;;;7.97;;
54555;SDS011;57291;37.520;15.106;2022-12-17T02:05:02;31.70;;;8.20;;
54555;SDS011;57291;37.520;15.106;2022-12-17T02:10:48;24.40;;;7.85;;
54555;SDS011;57291;37.520;15.106;2022-12-17T02:13:41;26.92;;;8.43;;
54555;SDS011;57291;37.520;15.106;2022-12-17T02:16:49;22.85;;;6.60;;
54555;SDS011;57291;37.520;15.106;2022-12-17T02:25:46;28.63;;;7.60;;
54555;SDS011;57291;37.520;15.106;2022-12-17T02:28:39;28.25;;;8.00;;
54555;SDS011;57291;37.520;15.106;2022-12-17T02:31:29;24.88;;;8.43;;
54555;SDS011;57291;37.520;15.106;2022-12-17T02:34:16;34.08;;;8.43;;
54555;SDS011;57291;37.520;15.106;2022-12-17T02:37:02;25.00;;;7.22;;
54555;SDS011;57291;37.520;15.106;2022-12-17T02:39:47;20.23;;;7.28;;
54555;SDS011;57291;37.520;15.106;2022-12-17T02:42:34;21.10;;;6.93;;
54555;SDS011;57291;37.520;15.106;2022-12-17T02:45:20;28.15;;;7.10;;
54555;SDS011;57291;37.520;15.106;2022-12-17T02:48:07;27.70;;;8.05;;
54555;SDS011;57291;37.520;15.106;2022-12-17T02:50:57;27.73;;;7.68;;
54555;SDS011;57291;37.520;15.106;2022-12-17T02:53:44;22.73;;;7.30;;
54555;SDS011;57291;37.520;15.106;2022-12-17T02:56:34;35.50;;;7.97;;
54555;SDS011;57291;37.520;15.106;2022-12-17T02:59:20;33.70;;;8.20;;
54555;SDS011;57291;37.520;15.106;2022-12-17T03:02:11;23.90;;;9.23;;
54555;SDS011;57291;37.520;15.106;2022-12-17T03:05:04;41.40;;;9.82;;
54555;SDS011;57291;37.520;15.106;2022-12-17T03:08:10;28.92;;;8.80;;
54555;SDS011;57291;37.520;15.106;2022-12-17T03:10:56;37.35;;;9.48;;
54555;SDS011;57291;37.520;15.106;2022-12-17T03:13:41;22.02;;;8.20;;
54555;SDS011;57291;37.520;15.106;2022-12-17T03:16:27;29.13;;;7.97;;
54555;SDS011;57291;37.520;15.106;2022-12-17T03:19:13;29.48;;;10.20;;
54555;SDS011;57291;37.520;15.106;2022-12-17T03:21:58;34.47;;;8.82;;
54555;SDS011;57291;37.520;15.106;2022-12-17T03:24:44;21.60;;;9.13;;
54555;SDS011;57291;37.520;15.106;2022-12-17T03:27:30;18.52;;;8.40;;
54555;SDS011;57291;37.520;15.106;2022-12-17T03:30:16;31.73;;;8.65;;
54555;SDS011;57291;37.520;15.106;2022-12-17T03:33:06;26.90;;;8.90;;
54555;SDS011;57291;37.520;15.106;2022-12-17T03:35:53;26.00;;;8.52;;
54555;SDS011;57291;37.520;15.106;2022-12-17T03:38:39;18.70;;;8.77;;
54555;SDS011;57291;37.520;15.106;2022-12-17T03:41:25;26.45;;;8.15;;
54555;SDS011;57291;37.520;15.106;2022-12-17T03:44:10;35.05;;;9.35;;
54555;SDS011;57291;37.520;15.106;2022-12-17T03:46:56;27.05;;;8.15;;
54555;SDS011;57291;37.520;15.106;2022-12-17T03:49:42;19.90;;;7.45;;
54555;SDS011;57291;37.520;15.106;2022-12-17T03:52:27;27.15;;;8.50;;
54555;SDS011;57291;37.520;15.106;2022-12-17T03:55:14;33.22;;;9.13;;
54555;SDS011;57291;37.520;15.106;2022-12-17T03:57:59;32.70;;;10.73;;
54555;SDS011;57291;37.520;15.106;2022-12-17T04:00:45;24.92;;;9.45;;
54555;SDS011;57291;37.520;15.106;2022-12-17T04:03:30;25.38;;;8.48;;
54555;SDS011;57291;37.520;15.106;2022-12-17T04:06:16;24.17;;;8.95;;
54555;SDS011;57291;37.520;15.106;2022-12-17T04:09:01;26.33;;;8.93;;
54555;SDS011;57291;37.520;15.106;2022-12-17T04:11:47;20.02;;;8.30;;
54555;SDS011;57291;37.520;15.106;2022-12-17T04:14:33;25.30;;;8.07;;
54555;SDS011;57291;37.520;15.106;2022-12-17T04:17:19;27.35;;;8.55;;
54555;SDS011;57291;37.520;15.106;2022-12-17T04:20:04;23.88;;;7.63;;
54555;SDS011;57291;37.520;15.106;2022-12-17T04:22:51;24.90;;;8.00;;
54555;SDS011;57291;37.520;15.106;2022-12-17T04:25:36;27.40;;;8.60;;
54555;SDS011;57291;37.520;15.106;2022-12-17T04:28:22;36.10;;;9.43;;
54555;SDS011;57291;37.520;15.106;2022-12-17T04:31:08;29.17;;;8.07;;
54555;SDS011;57291;37.520;15.106;2022-12-17T04:33:53;25.05;;;9.00;;
54555;SDS011;57291;37.520;15.106;2022-12-17T04:36:39;25.67;;;8.13;;
54555;SDS011;57291;37.520;15.106;2022-12-17T04:39:25;32.75;;;8.38;;
54555;SDS011;57291;37.520;15.106;2022-12-17T04:42:10;27.88;;;8.57;;
54555;SDS011;57291;37.520;15.106;2022-12-17T04:44:56;23.85;;;8.13;;
54555;SDS011;57291;37.520;15.106;2022-12-17T04:47:42;29.75;;;9.43;;
54555;SDS011;57291;37.520;15.106;2022-12-17T04:50:28;28.52;;;9.10;;
54555;SDS011;57291;37.520;15.106;2022-12-17T04:53:13;30.00;;;9.70;;
54555;SDS011;57291;37.520;15.106;2022-12-17T04:55:59;26.10;;;9.20;;
54555;SDS011;57291;37.520;15.106;2022-12-17T04:58:45;32.72;;;9.13;;
54555;SDS011;57291;37.520;15.106;2022-12-17T05:01:31;30.15;;;9.10;;
54555;SDS011;57291;37.520;15.106;2022-12-17T05:04:17;36.10;;;9.48;;
54555;SDS011;57291;37.520;15.106;2022-12-17T05:07:02;31.27;;;8.55;;
54555;SDS011;57291;37.520;15.106;2022-12-17T05:09:48;28.73;;;8.52;;
54555;SDS011;57291;37.520;15.106;2022-12-17T05:12:34;28.35;;;9.07;;
54555;SDS011;57291;37.520;15.106;2022-12-17T05:15:20;25.88;;;8.73;;
54555;SDS011;57291;37.520;15.106;2022-12-17T05:18:06;21.35;;;7.95;;
54555;SDS011;57291;37.520;15.106;2022-12-17T05:20:52;24.90;;;9.00;;
54555;SDS011;57291;37.520;15.106;2022-12-17T05:23:38;23.00;;;8.32;;
54555;SDS011;57291;37.520;15.106;2022-12-17T05:26:24;28.10;;;7.85;;
54555;SDS011;57291;37.520;15.106;2022-12-17T05:29:13;25.00;;;9.07;;
54555;SDS011;57291;37.520;15.106;2022-12-17T05:31:58;21.02;;;8.82;;
54555;SDS011;57291;37.520;15.106;2022-12-17T05:34:44;35.33;;;9.27;;
54555;SDS011;57291;37.520;15.106;2022-12-17T05:37:30;31.48;;;8.77;;
54555;SDS011;57291;37.520;15.106;2022-12-17T05:40:15;29.23;;;8.77;;
54555;SDS011;57291;37.520;15.106;2022-12-17T05:43:05;23.80;;;8.80;;
54555;SDS011;57291;37.520;15.106;2022-12-17T05:45:54;38.20;;;10.10;;
54555;SDS011;57291;37.520;15.106;2022-12-17T05:48:39;20.10;;;8.93;;
54555;SDS011;57291;37.520;15.106;2022-12-17T05:51:25;38.13;;;10.02;;
54555;SDS011;57291;37.520;15.106;2022-12-17T05:54:11;30.77;;;9.38;;
54555;SDS011;57291;37.520;15.106;2022-12-17T05:56:56;27.67;;;9.15;;
54555;SDS011;57291;37.520;15.106;2022-12-17T05:59:42;31.65;;;10.45;;
54555;SDS011;57291;37.520;15.106;2022-12-17T06:02:37;28.95;;;10.07;;
54555;SDS011;57291;37.520;15.106;2022-12-17T06:05:23;26.50;;;9.02;;
54555;SDS011;57291;37.520;15.106;2022-12-17T06:08:08;27.58;;;9.52;;
54555;SDS011;57291;37.520;15.106;2022-12-17T06:10:57;34.28;;;9.15;;
54555;SDS011;57291;37.520;15.106;2022-12-17T06:13:44;26.45;;;9.45;;
54555;SDS011;57291;37.520;15.106;2022-12-17T06:16:30;24.95;;;10.75;;
54555;SDS011;57291;37.520;15.106;2022-12-17T06:19:16;34.72;;;11.10;;
54555;SDS011;57291;37.520;15.106;2022-12-17T06:22:02;30.70;;;11.27;;
54555;SDS011;57291;37.520;15.106;2022-12-17T06:24:47;32.72;;;11.80;;
54555;SDS011;57291;37.520;15.106;2022-12-17T06:27:33;35.10;;;11.93;;
54555;SDS011;57291;37.520;15.106;2022-12-17T06:30:19;46.35;;;13.50;;
54555;SDS011;57291;37.520;15.106;2022-12-17T06:33:18;35.50;;;11.57;;
54555;SDS011;57291;37.520;15.106;2022-12-17T06:36:04;37.47;;;10.13;;
54555;SDS011;57291;37.520;15.106;2022-12-17T06:38:50;26.50;;;10.32;;
54555;SDS011;57291;37.520;15.106;2022-12-17T06:41:35;29.83;;;10.27;;
54555;SDS011;57291;37.520;15.106;2022-12-17T06:44:29;23.33;;;9.82;;
54555;SDS011;57291;37.520;15.106;2022-12-17T06:47:15;23.00;;;9.82;;
54555;SDS011;57291;37.520;15.106;2022-12-17T06:50:00;33.35;;;10.65;;
54555;SDS011;57291;37.520;15.106;2022-12-17T06:52:46;28.42;;;10.30;;
54555;SDS011;57291;37.520;15.106;2022-12-17T06:55:32;27.95;;;8.73;;
54555;SDS011;57291;37.520;15.106;2022-12-17T06:58:18;27.30;;;8.77;;
54555;SDS011;57291;37.520;15.106;2022-12-17T07:01:03;33.00;;;9.18;;
54555;SDS011;57291;37.520;15.106;2022-12-17T07:03:49;25.88;;;9.13;;
54555;SDS011;57291;37.520;15.106;2022-12-17T07:06:35;28.02;;;9.88;;
54555;SDS011;57291;37.520;15.106;2022-12-17T07:09:22;25.77;;;9.48;;
54555;SDS011;57291;37.520;15.106;2022-12-17T07:12:07;21.58;;;8.80;;
54555;SDS011;57291;37.520;15.106;2022-12-17T07:14:53;32.28;;;10.20;;
54555;SDS011;57291;37.520;15.106;2022-12-17T07:17:39;26.65;;;9.27;;
54555;SDS011;57291;37.520;15.106;2022-12-17T07:20:24;33.95;;;9.35;;
54555;SDS011;57291;37.520;15.106;2022-12-17T07:23:10;32.67;;;10.00;;
54555;SDS011;57291;37.520;15.106;2022-12-17T07:25:56;23.70;;;9.27;;
54555;SDS011;57291;37.520;15.106;2022-12-17T07:28:41;18.63;;;8.75;;
54555;SDS011;57291;37.520;15.106;2022-12-17T07:31:27;23.27;;;9.25;;
54555;SDS011;57291;37.520;15.106;2022-12-17T07:34:13;22.25;;;8.07;;
54555;SDS011;57291;37.520;15.106;2022-12-17T07:36:58;24.30;;;8.57;;
54555;SDS011;57291;37.520;15.106;2022-12-17T07:39:46;24.35;;;7.72;;
54555;SDS011;57291;37.520;15.106;2022-12-17T07:42:31;30.98;;;8.50;;
54555;SDS011;57291;37.520;15.106;2022-12-17T07:45:17;29.85;;;9.02;;
54555;SDS011;57291;37.520;15.106;2022-12-17T07:48:03;17.55;;;7.32;;
54555;SDS011;57291;37.520;15.106;2022-12-17T07:50:49;27.00;;;8.65;;
54555;SDS011;57291;37.520;15.106;2022-12-17T07:53:35;20.58;;;7.72;;
54555;SDS011;57291;37.520;15.106;2022-12-17T07:56:21;18.10;;;7.65;;
54555;SDS011;57291;37.520;15.106;2022-12-17T07:59:06;22.77;;;8.50;;
54555;SDS011;57291;37.520;15.106;2022-12-17T08:01:52;28.88;;;9.68;;
54555;SDS011;57291;37.520;15.106;2022-12-17T08:04:38;45.50;;;13.50;;
54555;SDS011;57291;37.520;15.106;2022-12-17T08:07:24;28.83;;;9.40;;
54555;SDS011;57291;37.520;15.106;2022-12-17T08:10:10;35.10;;;9.80;;
54555;SDS011;57291;37.520;15.106;2022-12-17T08:13:00;37.22;;;11.02;;
54555;SDS011;57291;37.520;15.106;2022-12-17T08:15:47;39.15;;;11.48;;
54555;SDS011;57291;37.520;15.106;2022-12-17T08:18:33;33.80;;;9.50;;
54555;SDS011;57291;37.520;15.106;2022-12-17T08:21:18;29.27;;;8.82;;
54555;SDS011;57291;37.520;15.106;2022-12-17T08:24:04;23.55;;;8.50;;
54555;SDS011;57291;37.520;15.106;2022-12-17T08:26:50;35.78;;;8.65;;
54555;SDS011;57291;37.520;15.106;2022-12-17T08:29:36;32.88;;;8.57;;
54555;SDS011;57291;37.520;15.106;2022-12-17T08:32:22;20.05;;;6.82;;
54555;SDS011;57291;37.520;15.106;2022-12-17T08:35:08;37.65;;;8.88;;
54555;SDS011;57291;37.520;15.106;2022-12-17T08:37:59;28.20;;;7.68;;
54555;SDS011;57291;37.520;15.106;2022-12-17T08:40:49;26.63;;;7.00;;
54555;SDS011;57291;37.520;15.106;2022-12-17T08:43:35;30.88;;;6.35;;
54555;SDS011;57291;37.520;15.106;2022-12-17T08:46:21;25.75;;;6.95;;
54555;SDS011;57291;37.520;15.106;2022-12-17T08:49:07;25.58;;;6.13;;
54555;SDS011;57291;37.520;15.106;2022-12-17T08:51:52;30.58;;;8.20;;
54555;SDS011;57291;37.520;15.106;2022-12-17T08:54:38;31.70;;;7.90;;
54555;SDS011;57291;37.520;15.106;2022-12-17T08:57:24;23.42;;;6.53;;
54555;SDS011;57291;37.520;15.106;2022-12-17T09:00:10;17.98;;;6.45;;
54555;SDS011;57291;37.520;15.106;2022-12-17T09:02:58;25.83;;;6.85;;
54555;SDS011;57291;37.520;15.106;2022-12-17T09:05:44;26.92;;;6.35;;
54555;SDS011;57291;37.520;15.106;2022-12-17T09:08:32;26.55;;;6.03;;
54555;SDS011;57291;37.520;15.106;2022-12-17T09:11:18;26.73;;;6.15;;
54555;SDS011;57291;37.520;15.106;2022-12-17T09:14:03;25.33;;;5.18;;
54555;SDS011;57291;37.520;15.106;2022-12-17T09:16:49;30.67;;;5.88;;
54555;SDS011;57291;37.520;15.106;2022-12-17T09:19:35;22.70;;;4.63;;
54555;SDS011;57291;37.520;15.106;2022-12-17T09:22:21;24.42;;;5.40;;
54555;SDS011;57291;37.520;15.106;2022-12-17T09:25:06;26.75;;;5.18;;
54555;SDS011;57291;37.520;15.106;2022-12-17T09:27:52;14.75;;;4.70;;
54555;SDS011;57291;37.520;15.106;2022-12-17T09:30:38;18.15;;;4.13;;
54555;SDS011;57291;37.520;15.106;2022-12-17T09:33:24;14.23;;;3.72;;
54555;SDS011;57291;37.520;15.106;2022-12-17T09:36:09;13.32;;;2.95;;
54555;SDS011;57291;37.520;15.106;2022-12-17T09:38:56;21.60;;;4.32;;
54555;SDS011;57291;37.520;15.106;2022-12-17T09:44:45;17.77;;;3.30;;
54555;SDS011;57291;37.520;15.106;2022-12-17T09:47:38;16.42;;;3.85;;
54555;SDS011;57291;37.520;15.106;2022-12-17T09:50:26;16.20;;;3.60;;
54555;SDS011;57291;37.520;15.106;2022-12-17T09:53:23;18.33;;;4.25;;
54555;SDS011;57291;37.520;15.106;2022-12-17T09:56:16;27.17;;;4.90;;
54555;SDS011;57291;37.520;15.106;2022-12-17T09:59:05;21.90;;;3.30;;
54555;SDS011;57291;37.520;15.106;2022-12-17T10:01:51;28.08;;;5.38;;
54555;SDS011;57291;37.520;15.106;2022-12-17T10:04:38;19.38;;;5.05;;
54555;SDS011;57291;37.520;15.106;2022-12-17T10:07:33;18.67;;;5.68;;
54555;SDS011;57291;37.520;15.106;2022-12-17T10:10:24;22.42;;;4.30;;
54555;SDS011;57291;37.520;15.106;2022-12-17T10:13:12;19.40;;;3.40;;
54555;SDS011;57291;37.520;15.106;2022-12-17T10:16:01;15.80;;;4.55;;
54555;SDS011;57291;37.520;15.106;2022-12-17T10:18:47;16.70;;;4.10;;
54555;SDS011;57291;37.520;15.106;2022-12-17T10:21:34;22.38;;;4.43;;
54555;SDS011;57291;37.520;15.106;2022-12-17T10:24:23;14.10;;;3.65;;
54555;SDS011;57291;37.520;15.106;2022-12-17T10:27:14;16.17;;;4.10;;
54555;SDS011;57291;37.520;15.106;2022-12-17T10:30:04;14.93;;;3.47;;
54555;SDS011;57291;37.520;15.106;2022-12-17T10:32:58;13.50;;;4.05;;
54555;SDS011;57291;37.520;15.106;2022-12-17T10:35:49;17.80;;;3.55;;
54555;SDS011;57291;37.520;15.106;2022-12-17T10:38:35;18.13;;;4.05;;
54555;SDS011;57291;37.520;15.106;2022-12-17T10:41:28;17.02;;;4.13;;
54555;SDS011;57291;37.520;15.106;2022-12-17T10:44:28;14.30;;;3.30;;
54555;SDS011;57291;37.520;15.106;2022-12-17T10:47:19;25.40;;;3.85;;
54555;SDS011;57291;37.520;15.106;2022-12-17T10:50:11;15.45;;;2.90;;
54555;SDS011;57291;37.520;15.106;2022-12-17T10:53:01;18.13;;;2.95;;
54555;SDS011;57291;37.520;15.106;2022-12-17T10:55:53;15.23;;;3.40;;
54555;SDS011;57291;37.520;15.106;2022-12-17T10:58:44;14.85;;;3.17;;
54555;SDS011;57291;37.520;15.106;2022-12-17T11:01:31;14.48;;;3.22;;
54555;SDS011;57291;37.520;15.106;2022-12-17T11:04:22;22.63;;;3.33;;
54555;SDS011;57291;37.520;15.106;2022-12-17T11:07:13;16.50;;;4.35;;
54555;SDS011;57291;37.520;15.106;2022-12-17T11:10:13;20.10;;;4.78;;
54555;SDS011;57291;37.520;15.106;2022-12-17T11:13:02;29.07;;;5.40;;
54555;SDS011;57291;37.520;15.106;2022-12-17T11:15:52;21.33;;;4.93;;
54555;SDS011;57291;37.520;15.106;2022-12-17T11:22:01;20.55;;;5.07;;
54555;SDS011;57291;37.520;15.106;2022-12-17T11:28:20;21.02;;;4.10;;
54555;SDS011;57291;37.520;15.106;2022-12-17T11:31:21;17.77;;;4.18;;
54555;SDS011;57291;37.520;15.106;2022-12-17T11:34:18;12.63;;;3.97;;
54555;SDS011;57291;37.520;15.106;2022-12-17T11:37:30;18.10;;;3.83;;
54555;SDS011;57291;37.520;15.106;2022-12-17T11:40:41;18.80;;;3.43;;
54555;SDS011;57291;37.520;15.106;2022-12-17T11:52:41;19.38;;;3.13;;
54555;SDS011;57291;37.520;15.106;2022-12-17T11:58:52;12.68;;;2.63;;
54555;SDS011;57291;37.520;15.106;2022-12-17T12:14:06;14.40;;;2.88;;
54555;SDS011;57291;37.520;15.106;2022-12-17T12:26:14;13.18;;;2.40;;
54555;SDS011;57291;37.520;15.106;2022-12-17T12:29:23;18.45;;;3.00;;
54555;SDS011;57291;37.520;15.106;2022-12-17T12:32:18;9.35;;;2.17;;
54555;SDS011;57291;37.520;15.106;2022-12-17T12:35:15;9.13;;;2.45;;
54555;SDS011;57291;37.520;15.106;2022-12-17T12:38:04;10.25;;;3.00;;
54555;SDS011;57291;37.520;15.106;2022-12-17T12:40:57;7.15;;;1.58;;
54555;SDS011;57291;37.520;15.106;2022-12-17T12:43:58;8.23;;;1.65;;
54555;SDS011;57291;37.520;15.106;2022-12-17T12:46:51;11.25;;;2.17;;
54555;SDS011;57291;37.520;15.106;2022-12-17T12:49:44;14.90;;;2.35;;
54555;SDS011;57291;37.520;15.106;2022-12-17T12:52:38;13.13;;;2.88;;
54555;SDS011;57291;37.520;15.106;2022-12-17T12:55:34;15.77;;;3.30;;
54555;SDS011;57291;37.520;15.106;2022-12-17T12:58:26;14.23;;;4.15;;
54555;SDS011;57291;37.520;15.106;2022-12-17T13:01:13;16.65;;;3.22;;
54555;SDS011;57291;37.520;15.106;2022-12-17T13:04:00;17.45;;;3.90;;
54555;SDS011;57291;37.520;15.106;2022-12-17T13:07:01;15.45;;;3.83;;
54555;SDS011;57291;37.520;15.106;2022-12-17T13:09:35;14.48;;;3.55;;
54555;SDS011;57291;37.520;15.106;2022-12-17T13:14:32;13.48;;;3.22;;
54555;SDS011;57291;37.520;15.106;2022-12-17T13:18:05;9.40;;;2.70;;
54555;SDS011;57291;37.520;15.106;2022-12-17T13:19:59;9.55;;;2.17;;
54555;SDS011;57291;37.520;15.106;2022-12-17T13:22:30;13.63;;;2.30;;
54555;SDS011;57291;37.520;15.106;2022-12-17T13:25:14;14.73;;;2.45;;
54555;SDS011;57291;37.520;15.106;2022-12-17T13:27:44;10.38;;;2.45;;
54555;SDS011;57291;37.520;15.106;2022-12-17T13:48:52;11.15;;;2.70;;
54555;SDS011;57291;37.520;15.106;2022-12-17T13:51:22;13.05;;;2.42;;
54555;SDS011;57291;37.520;15.106;2022-12-17T13:53:57;10.32;;;2.70;;
54555;SDS011;57291;37.520;15.106;2022-12-17T13:56:28;8.02;;;2.90;;
54555;SDS011;57291;37.520;15.106;2022-12-17T13:59:01;12.43;;;3.38;;
54555;SDS011;57291;37.520;15.106;2022-12-17T14:01:48;14.13;;;2.55;;
54555;SDS011;57291;37.520;15.106;2022-12-17T14:04:24;16.60;;;2.80;;
54555;SDS011;57291;37.520;15.106;2022-12-17T14:06:54;12.18;;;3.03;;
54555;SDS011;57291;37.520;15.106;2022-12-17T14:09:29;11.90;;;2.70;;
54555;SDS011;57291;37.520;15.106;2022-12-17T14:12:04;20.50;;;3.38;;
54555;SDS011;57291;37.520;15.106;2022-12-17T14:20:17;16.25;;;2.95;;
54555;SDS011;57291;37.520;15.106;2022-12-17T14:22:51;12.75;;;3.33;;
54555;SDS011;57291;37.520;15.106;2022-12-17T14:30:23;10.85;;;2.67;;
54555;SDS011;57291;37.520;15.106;2022-12-17T14:32:58;13.18;;;3.33;;
54555;SDS011;57291;37.520;15.106;2022-12-17T14:35:27;17.48;;;3.17;;
54555;SDS011;57291;37.520;15.106;2022-12-17T14:38:00;17.55;;;3.60;;
54555;SDS011;57291;37.520;15.106;2022-12-17T14:40:28;19.73;;;2.85;;
54555;SDS011;57291;37.520;15.106;2022-12-17T14:42:59;15.65;;;3.03;;
54555;SDS011;57291;37.520;15.106;2022-12-17T14:45:27;14.20;;;3.03;;
54555;SDS011;57291;37.520;15.106;2022-12-17T14:50:29;9.27;;;2.25;;
54555;SDS011;57291;37.520;15.106;2022-12-17T14:53:03;9.48;;;2.78;;
54555;SDS011;57291;37.520;15.106;2022-12-17T14:55:54;18.05;;;3.03;;
54555;SDS011;57291;37.520;15.106;2022-12-17T14:58:24;11.18;;;2.88;;
54555;SDS011;57291;37.520;15.106;2022-12-17T15:01:26;13.45;;;2.65;;
54555;SDS011;57291;37.520;15.106;2022-12-17T15:03:48;17.08;;;1.98;;
54555;SDS011;57291;37.520;15.106;2022-12-17T15:06:19;18.40;;;3.95;;
54555;SDS011;57291;37.520;15.106;2022-12-17T15:08:48;11.73;;;2.50;;
54555;SDS011;57291;37.520;15.106;2022-12-17T15:11:20;14.38;;;2.65;;
54555;SDS011;57291;37.520;15.106;2022-12-17T15:13:49;11.40;;;2.30;;
54555;SDS011;57291;37.520;15.106;2022-12-17T15:16:22;13.93;;;2.17;;
54555;SDS011;57291;37.520;15.106;2022-12-17T15:18:51;19.27;;;2.78;;
54555;SDS011;57291;37.520;15.106;2022-12-17T15:21:20;11.05;;;2.58;;
54555;SDS011;57291;37.520;15.106;2022-12-17T15:23:50;14.10;;;2.38;;
54555;SDS011;57291;37.520;15.106;2022-12-17T15:26:24;11.10;;;2.33;;
54555;SDS011;57291;37.520;15.106;2022-12-17T15:28:53;12.85;;;2.55;;
54555;SDS011;57291;37.520;15.106;2022-12-17T15:31:20;11.85;;;3.13;;
54555;SDS011;57291;37.520;15.106;2022-12-17T15:33:52;16.85;;;3.05;;
54555;SDS011;57291;37.520;15.106;2022-12-17T15:36:19;17.98;;;2.90;;
54555;SDS011;57291;37.520;15.106;2022-12-17T15:38:46;14.30;;;3.17;;
54555;SDS011;57291;37.520;15.106;2022-12-17T15:41:13;17.92;;;2.90;;
54555;SDS011;57291;37.520;15.106;2022-12-17T15:43:59;10.68;;;3.15;;
54555;SDS011;57291;37.520;15.106;2022-12-17T15:46:26;15.90;;;2.92;;
54555;SDS011;57291;37.520;15.106;2022-12-17T15:48:55;12.55;;;2.88;;
54555;SDS011;57291;37.520;15.106;2022-12-17T15:51:22;17.58;;;3.78;;
54555;SDS011;57291;37.520;15.106;2022-12-17T15:53:50;20.17;;;5.22;;
54555;SDS011;57291;37.520;15.106;2022-12-17T15:56:18;13.05;;;4.03;;
54555;SDS011;57291;37.520;15.106;2022-12-17T15:58:46;14.05;;;4.25;;
54555;SDS011;57291;37.520;15.106;2022-12-17T16:01:14;14.70;;;4.43;;
54555;SDS011;57291;37.520;15.106;2022-12-17T16:03:42;14.52;;;3.15;;
54555;SDS011;57291;37.520;15.106;2022-12-17T16:06:10;18.95;;;3.60;;
54555;SDS011;57291;37.520;15.106;2022-12-17T16:08:37;12.75;;;3.33;;
54555;SDS011;57291;37.520;15.106;2022-12-17T16:11:06;15.32;;;3.13;;
54555;SDS011;57291;37.520;15.106;2022-12-17T16:13:35;18.50;;;3.67;;
54555;SDS011;57291;37.520;15.106;2022-12-17T16:16:03;11.77;;;3.72;;
54555;SDS011;57291;37.520;15.106;2022-12-17T16:18:31;15.57;;;4.47;;
54555;SDS011;57291;37.520;15.106;2022-12-17T16:21:02;19.05;;;4.80;;
54555;SDS011;57291;37.520;15.106;2022-12-17T16:23:31;24.52;;;5.38;;
54555;SDS011;57291;37.520;15.106;2022-12-17T16:25:59;15.30;;;4.60;;
54555;SDS011;57291;37.520;15.106;2022-12-17T16:28:28;11.95;;;4.47;;
54555;SDS011;57291;37.520;15.106;2022-12-17T16:30:57;15.27;;;5.82;;
54555;SDS011;57291;37.520;15.106;2022-12-17T16:33:24;15.10;;;5.38;;
54555;SDS011;57291;37.520;15.106;2022-12-17T16:35:56;19.60;;;5.60;;
54555;SDS011;57291;37.520;15.106;2022-12-17T16:38:24;17.40;;;5.10;;
54555;SDS011;57291;37.520;15.106;2022-12-17T16:40:58;19.63;;;5.65;;
54555;SDS011;57291;37.520;15.106;2022-12-17T16:43:27;17.50;;;4.95;;
54555;SDS011;57291;37.520;15.106;2022-12-17T16:46:01;24.23;;;4.80;;
54555;SDS011;57291;37.520;15.106;2022-12-17T16:48:36;19.38;;;4.72;;
54555;SDS011;57291;37.520;15.106;2022-12-17T16:51:25;19.27;;;5.85;;
54555;SDS011;57291;37.520;15.106;2022-12-17T16:53:55;19.80;;;5.13;;
54555;SDS011;57291;37.520;15.106;2022-12-17T16:56:25;17.27;;;7.00;;
54555;SDS011;57291;37.520;15.106;2022-12-17T16:58:54;21.15;;;9.02;;
54555;SDS011;57291;37.520;15.106;2022-12-17T17:01:23;21.50;;;9.77;;
54555;SDS011;57291;37.520;15.106;2022-12-17T17:03:53;24.95;;;8.43;;
54555;SDS011;57291;37.520;15.106;2022-12-17T17:06:22;20.27;;;7.97;;
54555;SDS011;57291;37.520;15.106;2022-12-17T17:08:58;25.15;;;9.27;;
54555;SDS011;57291;37.520;15.106;2022-12-17T17:11:25;28.33;;;10.90;;
54555;SDS011;57291;37.520;15.106;2022-12-17T17:13:52;22.48;;;9.93;;
54555;SDS011;57291;37.520;15.106;2022-12-17T17:16:21;26.42;;;10.82;;
54555;SDS011;57291;37.520;15.106;2022-12-17T17:18:50;30.92;;;10.57;;
54555;SDS011;57291;37.520;15.106;2022-12-17T17:23:46;24.58;;;10.70;;
54555;SDS011;57291;37.520;15.106;2022-12-17T17:26:15;21.02;;;8.70;;
54555;SDS011;57291;37.520;15.106;2022-12-17T17:28:45;26.65;;;9.25;;
54555;SDS011;57291;37.520;15.106;2022-12-17T17:31:13;21.48;;;9.05;;